sensor_id;sensor_type;location;lat;lon;timestamp;pressure;altitude;pressure_sealevel;temperature;humidity
79481;BME280;68944;48.262;14.208;2023-07-13T00:01:45;98164.34;;;20.51;82.68
79481;BME280;68944;48.262;14.208;2023-07-13T00:04:19;98169.50;;;20.48;85.26
79481;BME280;68944;48.262;14.208;2023-07-13T00:06:46;98163.06;;;20.68;83.74
79481;BME280;68944;48.262;14.208;2023-07-13T00:09:16;98160.56;;;20.91;83.43
79481;BME280;68944;48.262;14.208;2023-07-13T00:11:42;98168.38;;;21.12;83.05
79481;BME280;68944;48.262;14.208;2023-07-13T00:14:08;98159.81;;;21.24;82.09
79481;BME280;68944;48.262;14.208;2023-07-13T00:16:38;98174.50;;;21.32;81.55
79481;BME280;68944;48.262;14.208;2023-07-13T00:19:05;98178.28;;;21.31;80.95
79481;BME280;68944;48.262;14.208;2023-07-13T00:21:31;98188.97;;;21.02;80.82
79481;BME280;68944;48.262;14.208;2023-07-13T00:23:57;98200.38;;;20.94;83.04
79481;BME280;68944;48.262;14.208;2023-07-13T00:26:23;98190.84;;;20.63;83.13
79481;BME280;68944;48.262;14.208;2023-07-13T00:28:48;98198.69;;;20.79;82.79
79481;BME280;68944;48.262;14.208;2023-07-13T00:31:14;98177.53;;;20.72;83.28
79481;BME280;68944;48.262;14.208;2023-07-13T00:33:41;98174.97;;;20.62;83.12
79481;BME280;68944;48.262;14.208;2023-07-13T00:36:08;98163.19;;;20.57;83.94
79481;BME280;68944;48.262;14.208;2023-07-13T00:38:33;98169.13;;;20.54;84.36
79481;BME280;68944;48.262;14.208;2023-07-13T00:40:59;98175.06;;;20.32;84.46
79481;BME280;68944;48.262;14.208;2023-07-13T00:43:27;98181.31;;;20.27;84.40
79481;BME280;68944;48.262;14.208;2023-07-13T00:48:21;98163.97;;;20.39;83.77
79481;BME280;68944;48.262;14.208;2023-07-13T00:50:51;98150.91;;;20.51;83.12
79481;BME280;68944;48.262;14.208;2023-07-13T00:53:18;98146.25;;;20.76;82.75
79481;BME280;68944;48.262;14.208;2023-07-13T00:55:44;98131.53;;;20.88;81.95
79481;BME280;68944;48.262;14.208;2023-07-13T00:58:10;98154.31;;;20.76;81.83
79481;BME280;68944;48.262;14.208;2023-07-13T01:00:36;98148.00;;;20.67;81.13
79481;BME280;68944;48.262;14.208;2023-07-13T01:03:04;98159.84;;;20.66;81.36
79481;BME280;68944;48.262;14.208;2023-07-13T01:05:32;98157.75;;;20.63;81.77
79481;BME280;68944;48.262;14.208;2023-07-13T01:07:59;98154.19;;;20.67;81.75
79481;BME280;68944;48.262;14.208;2023-07-13T01:10:26;98171.56;;;20.56;81.81
79481;BME280;68944;48.262;14.208;2023-07-13T01:12:53;98170.81;;;20.50;81.99
79481;BME280;68944;48.262;14.208;2023-07-13T01:17:58;98197.16;;;20.29;82.11
79481;BME280;68944;48.262;14.208;2023-07-13T01:20:24;98197.50;;;20.22;82.06
79481;BME280;68944;48.262;14.208;2023-07-13T01:22:50;98194.97;;;20.06;81.82
79481;BME280;68944;48.262;14.208;2023-07-13T01:25:16;98192.22;;;20.17;82.69
79481;BME280;68944;48.262;14.208;2023-07-13T01:27:42;98205.22;;;20.29;82.14
79481;BME280;68944;48.262;14.208;2023-07-13T01:30:09;98201.47;;;20.30;81.97
79481;BME280;68944;48.262;14.208;2023-07-13T01:32:34;98210.97;;;20.22;81.85
79481;BME280;68944;48.262;14.208;2023-07-13T01:35:03;98204.50;;;20.23;82.16
79481;BME280;68944;48.262;14.208;2023-07-13T01:37:29;98201.75;;;20.28;82.75
79481;BME280;68944;48.262;14.208;2023-07-13T01:39:59;98216.19;;;20.38;82.35
79481;BME280;68944;48.262;14.208;2023-07-13T01:42:25;98220.75;;;20.37;82.25
79481;BME280;68944;48.262;14.208;2023-07-13T01:44:50;98220.47;;;20.39;82.17
79481;BME280;68944;48.262;14.208;2023-07-13T01:47:16;98216.28;;;20.27;82.25
79481;BME280;68944;48.262;14.208;2023-07-13T01:49:41;98229.56;;;20.18;82.82
79481;BME280;68944;48.262;14.208;2023-07-13T01:52:07;98221.50;;;20.18;82.85
79481;BME280;68944;48.262;14.208;2023-07-13T01:54:32;98235.94;;;20.28;82.63
79481;BME280;68944;48.262;14.208;2023-07-13T01:56:59;98231.81;;;20.35;82.82
79481;BME280;68944;48.262;14.208;2023-07-13T01:59:25;98218.56;;;20.39;82.71
79481;BME280;68944;48.262;14.208;2023-07-13T02:01:50;98229.94;;;20.55;82.28
79481;BME280;68944;48.262;14.208;2023-07-13T02:04:16;98232.66;;;20.55;83.25
79481;BME280;68944;48.262;14.208;2023-07-13T02:06:41;98229.19;;;20.50;83.16
79481;BME280;68944;48.262;14.208;2023-07-13T02:09:07;98234.38;;;20.46;82.27
79481;BME280;68944;48.262;14.208;2023-07-13T02:11:33;98235.78;;;20.38;83.49
79481;BME280;68944;48.262;14.208;2023-07-13T02:14:00;98235.53;;;20.40;83.78
79481;BME280;68944;48.262;14.208;2023-07-13T02:16:27;98237.25;;;20.30;83.76
79481;BME280;68944;48.262;14.208;2023-07-13T02:18:52;98242.13;;;20.28;83.97
79481;BME280;68944;48.262;14.208;2023-07-13T02:21:18;98247.06;;;20.16;85.06
79481;BME280;68944;48.262;14.208;2023-07-13T02:23:43;98246.34;;;20.05;84.14
79481;BME280;68944;48.262;14.208;2023-07-13T02:26:09;98234.09;;;19.93;84.47
79481;BME280;68944;48.262;14.208;2023-07-13T02:28:35;98233.34;;;20.17;84.39
79481;BME280;68944;48.262;14.208;2023-07-13T02:31:09;98221.38;;;20.29;83.99
79481;BME280;68944;48.262;14.208;2023-07-13T02:33:34;98236.84;;;20.42;83.63
79481;BME280;68944;48.262;14.208;2023-07-13T02:36:00;98243.47;;;20.26;83.40
79481;BME280;68944;48.262;14.208;2023-07-13T02:38:25;98242.72;;;20.20;84.44
79481;BME280;68944;48.262;14.208;2023-07-13T02:40:51;98243.88;;;20.08;84.87
79481;BME280;68944;48.262;14.208;2023-07-13T02:43:19;98223.81;;;20.00;84.22
79481;BME280;68944;48.262;14.208;2023-07-13T02:45:46;98207.38;;;20.02;84.77
79481;BME280;68944;48.262;14.208;2023-07-13T02:48:13;98225.97;;;20.28;84.49
79481;BME280;68944;48.262;14.208;2023-07-13T02:50:39;98221.22;;;20.20;84.15
79481;BME280;68944;48.262;14.208;2023-07-13T02:53:05;98213.78;;;20.11;84.16
79481;BME280;68944;48.262;14.208;2023-07-13T02:55:30;98204.97;;;20.30;83.74
79481;BME280;68944;48.262;14.208;2023-07-13T02:57:56;98191.53;;;20.50;83.07
79481;BME280;68944;48.262;14.208;2023-07-13T03:00:22;98196.38;;;20.72;82.07
79481;BME280;68944;48.262;14.208;2023-07-13T03:02:48;98192.72;;;20.82;82.12
79481;BME280;68944;48.262;14.208;2023-07-13T03:05:14;98177.91;;;20.65;82.33
79481;BME280;68944;48.262;14.208;2023-07-13T03:07:42;98178.31;;;20.53;82.23
79481;BME280;68944;48.262;14.208;2023-07-13T03:10:08;98191.81;;;20.48;82.90
79481;BME280;68944;48.262;14.208;2023-07-13T03:12:42;98193.34;;;20.54;82.74
79481;BME280;68944;48.262;14.208;2023-07-13T03:15:14;98185.53;;;20.58;82.72
79481;BME280;68944;48.262;14.208;2023-07-13T03:17:42;98194.91;;;20.61;83.04
79481;BME280;68944;48.262;14.208;2023-07-13T03:20:08;98196.03;;;20.54;82.72
79481;BME280;68944;48.262;14.208;2023-07-13T03:22:35;98184.78;;;20.52;82.91
79481;BME280;68944;48.262;14.208;2023-07-13T03:25:00;98189.97;;;20.68;82.06
79481;BME280;68944;48.262;14.208;2023-07-13T03:27:26;98189.16;;;20.87;81.34
79481;BME280;68944;48.262;14.208;2023-07-13T03:29:52;98196.28;;;20.97;81.25
79481;BME280;68944;48.262;14.208;2023-07-13T03:32:17;98187.38;;;21.01;81.07
79481;BME280;68944;48.262;14.208;2023-07-13T03:34:43;98191.94;;;21.01;80.86
79481;BME280;68944;48.262;14.208;2023-07-13T03:37:08;98200.69;;;21.12;80.54
79481;BME280;68944;48.262;14.208;2023-07-13T03:39:35;98199.00;;;21.16;80.34
79481;BME280;68944;48.262;14.208;2023-07-13T03:42:01;98195.72;;;21.19;80.21
79481;BME280;68944;48.262;14.208;2023-07-13T03:44:27;98191.13;;;21.20;79.94
79481;BME280;68944;48.262;14.208;2023-07-13T03:46:55;98194.56;;;21.25;79.88
79481;BME280;68944;48.262;14.208;2023-07-13T03:49:20;98192.06;;;21.29;79.75
79481;BME280;68944;48.262;14.208;2023-07-13T03:51:47;98201.53;;;21.26;79.40
79481;BME280;68944;48.262;14.208;2023-07-13T03:54:12;98193.94;;;21.29;79.35
79481;BME280;68944;48.262;14.208;2023-07-13T03:56:38;98198.84;;;21.26;79.68
79481;BME280;68944;48.262;14.208;2023-07-13T03:59:05;98200.22;;;21.24;79.89
79481;BME280;68944;48.262;14.208;2023-07-13T04:01:31;98195.88;;;21.28;79.58
79481;BME280;68944;48.262;14.208;2023-07-13T04:03:57;98189.81;;;21.17;80.38
79481;BME280;68944;48.262;14.208;2023-07-13T04:06:27;98189.25;;;21.20;79.67
79481;BME280;68944;48.262;14.208;2023-07-13T04:08:55;98194.56;;;21.25;79.71
79481;BME280;68944;48.262;14.208;2023-07-13T04:11:23;98187.47;;;21.30;79.55
79481;BME280;68944;48.262;14.208;2023-07-13T04:13:49;98188.56;;;21.29;79.96
79481;BME280;68944;48.262;14.208;2023-07-13T04:16:17;98204.16;;;21.32;80.07
79481;BME280;68944;48.262;14.208;2023-07-13T04:18:44;98194.44;;;21.31;80.14
79481;BME280;68944;48.262;14.208;2023-07-13T04:21:10;98200.94;;;21.30;80.68
79481;BME280;68944;48.262;14.208;2023-07-13T04:23:36;98199.75;;;21.36;79.70
79481;BME280;68944;48.262;14.208;2023-07-13T04:26:02;98204.56;;;21.39;79.54
79481;BME280;68944;48.262;14.208;2023-07-13T04:28:27;98200.00;;;21.40;79.76
79481;BME280;68944;48.262;14.208;2023-07-13T04:30:53;98188.09;;;21.41;79.60
79481;BME280;68944;48.262;14.208;2023-07-13T04:33:19;98197.06;;;21.36;79.81
79481;BME280;68944;48.262;14.208;2023-07-13T04:35:52;98202.38;;;21.41;79.83
79481;BME280;68944;48.262;14.208;2023-07-13T04:38:32;98201.00;;;21.44;79.82
79481;BME280;68944;48.262;14.208;2023-07-13T04:41:00;98201.81;;;21.44;79.73
79481;BME280;68944;48.262;14.208;2023-07-13T04:43:27;98194.72;;;21.48;79.57
79481;BME280;68944;48.262;14.208;2023-07-13T04:45:53;98205.44;;;21.54;79.61
79481;BME280;68944;48.262;14.208;2023-07-13T04:48:19;98204.31;;;21.55;79.55
79481;BME280;68944;48.262;14.208;2023-07-13T04:50:46;98209.69;;;21.55;79.73
79481;BME280;68944;48.262;14.208;2023-07-13T04:53:11;98198.41;;;21.53;79.43
79481;BME280;68944;48.262;14.208;2023-07-13T04:55:37;98204.81;;;21.57;79.58
79481;BME280;68944;48.262;14.208;2023-07-13T04:58:03;98211.00;;;21.57;78.85
79481;BME280;68944;48.262;14.208;2023-07-13T05:00:29;98203.31;;;21.51;78.66
79481;BME280;68944;48.262;14.208;2023-07-13T05:02:56;98197.00;;;21.41;78.93
79481;BME280;68944;48.262;14.208;2023-07-13T05:05:23;98212.47;;;21.49;79.67
79481;BME280;68944;48.262;14.208;2023-07-13T05:07:49;98207.09;;;21.49;79.26
79481;BME280;68944;48.262;14.208;2023-07-13T05:10:15;98213.50;;;21.54;79.37
79481;BME280;68944;48.262;14.208;2023-07-13T05:12:40;98214.28;;;21.54;78.16
79481;BME280;68944;48.262;14.208;2023-07-13T05:15:06;98216.72;;;21.56;78.85
79481;BME280;68944;48.262;14.208;2023-07-13T05:17:32;98215.69;;;21.52;78.58
79481;BME280;68944;48.262;14.208;2023-07-13T05:19:57;98218.78;;;21.59;78.83
79481;BME280;68944;48.262;14.208;2023-07-13T05:22:23;98220.09;;;21.62;78.75
79481;BME280;68944;48.262;14.208;2023-07-13T05:24:49;98222.50;;;21.63;79.44
79481;BME280;68944;48.262;14.208;2023-07-13T05:27:14;98219.59;;;21.59;79.03
79481;BME280;68944;48.262;14.208;2023-07-13T05:29:40;98213.50;;;21.54;79.42
79481;BME280;68944;48.262;14.208;2023-07-13T05:32:06;98228.06;;;21.53;79.20
79481;BME280;68944;48.262;14.208;2023-07-13T05:34:31;98230.72;;;21.39;79.39
79481;BME280;68944;48.262;14.208;2023-07-13T05:36:57;98221.25;;;21.41;79.77
79481;BME280;68944;48.262;14.208;2023-07-13T05:39:23;98228.91;;;21.34;79.29
79481;BME280;68944;48.262;14.208;2023-07-13T05:41:48;98234.59;;;21.32;79.94
79481;BME280;68944;48.262;14.208;2023-07-13T05:44:14;98234.53;;;21.18;80.35
79481;BME280;68944;48.262;14.208;2023-07-13T05:46:39;98231.47;;;21.06;80.76
79481;BME280;68944;48.262;14.208;2023-07-13T05:49:05;98240.34;;;21.06;80.67
79481;BME280;68944;48.262;14.208;2023-07-13T05:51:30;98235.47;;;21.08;81.02
79481;BME280;68944;48.262;14.208;2023-07-13T05:53:56;98223.13;;;21.07;81.04
79481;BME280;68944;48.262;14.208;2023-07-13T05:56:21;98218.88;;;21.01;81.23
79481;BME280;68944;48.262;14.208;2023-07-13T05:58:48;98228.88;;;21.00;81.51
79481;BME280;68944;48.262;14.208;2023-07-13T06:01:15;98246.03;;;21.05;81.04
79481;BME280;68944;48.262;14.208;2023-07-13T06:03:41;98242.91;;;21.17;81.22
79481;BME280;68944;48.262;14.208;2023-07-13T06:06:08;98239.34;;;21.21;81.20
79481;BME280;68944;48.262;14.208;2023-07-13T06:08:35;98239.91;;;21.18;81.20
79481;BME280;68944;48.262;14.208;2023-07-13T06:11:13;98243.13;;;21.20;80.59
79481;BME280;68944;48.262;14.208;2023-07-13T06:13:39;98245.31;;;21.18;80.67
79481;BME280;68944;48.262;14.208;2023-07-13T06:16:05;98247.41;;;21.21;81.56
79481;BME280;68944;48.262;14.208;2023-07-13T06:18:33;98252.94;;;21.30;80.99
79481;BME280;68944;48.262;14.208;2023-07-13T06:20:59;98243.63;;;21.22;79.91
79481;BME280;68944;48.262;14.208;2023-07-13T06:23:24;98257.28;;;21.26;80.23
79481;BME280;68944;48.262;14.208;2023-07-13T06:25:50;98258.19;;;21.21;80.12
79481;BME280;68944;48.262;14.208;2023-07-13T06:28:15;98265.25;;;21.17;80.42
79481;BME280;68944;48.262;14.208;2023-07-13T06:30:41;98272.38;;;21.08;80.54
79481;BME280;68944;48.262;14.208;2023-07-13T06:33:06;98273.53;;;21.01;80.29
79481;BME280;68944;48.262;14.208;2023-07-13T06:35:32;98279.47;;;20.98;80.44
79481;BME280;68944;48.262;14.208;2023-07-13T06:37:57;98281.50;;;20.87;80.03
79481;BME280;68944;48.262;14.208;2023-07-13T06:40:23;98271.97;;;20.95;81.47
79481;BME280;68944;48.262;14.208;2023-07-13T06:42:48;98274.88;;;20.99;80.77
79481;BME280;68944;48.262;14.208;2023-07-13T06:45:14;98278.94;;;21.01;80.31
79481;BME280;68944;48.262;14.208;2023-07-13T06:47:39;98275.00;;;21.13;80.41
79481;BME280;68944;48.262;14.208;2023-07-13T06:50:05;98271.28;;;21.09;80.75
79481;BME280;68944;48.262;14.208;2023-07-13T06:52:31;98272.75;;;21.20;80.56
79481;BME280;68944;48.262;14.208;2023-07-13T06:54:56;98272.25;;;21.37;80.47
79481;BME280;68944;48.262;14.208;2023-07-13T06:57:22;98276.38;;;21.30;78.89
79481;BME280;68944;48.262;14.208;2023-07-13T06:59:47;98282.72;;;21.39;79.27
79481;BME280;68944;48.262;14.208;2023-07-13T07:02:13;98290.56;;;21.35;78.96
79481;BME280;68944;48.262;14.208;2023-07-13T07:04:39;98297.41;;;21.47;78.83
79481;BME280;68944;48.262;14.208;2023-07-13T07:07:04;98304.47;;;21.62;78.45
79481;BME280;68944;48.262;14.208;2023-07-13T07:09:29;98294.38;;;21.68;78.33
79481;BME280;68944;48.262;14.208;2023-07-13T07:11:57;98299.06;;;21.62;77.66
79481;BME280;68944;48.262;14.208;2023-07-13T07:14:23;98302.56;;;21.63;77.46
79481;BME280;68944;48.262;14.208;2023-07-13T07:16:49;98304.41;;;21.48;76.75
79481;BME280;68944;48.262;14.208;2023-07-13T07:19:16;98307.91;;;21.48;76.80
79481;BME280;68944;48.262;14.208;2023-07-13T07:21:41;98305.91;;;21.54;77.56
79481;BME280;68944;48.262;14.208;2023-07-13T07:24:07;98297.19;;;21.63;77.92
79481;BME280;68944;48.262;14.208;2023-07-13T07:26:33;98311.28;;;21.74;77.14
79481;BME280;68944;48.262;14.208;2023-07-13T07:28:58;98311.16;;;21.65;77.20
79481;BME280;68944;48.262;14.208;2023-07-13T07:31:24;98315.13;;;21.53;76.16
79481;BME280;68944;48.262;14.208;2023-07-13T07:33:49;98306.22;;;21.53;75.42
79481;BME280;68944;48.262;14.208;2023-07-13T07:36:16;98304.59;;;21.52;75.38
79481;BME280;68944;48.262;14.208;2023-07-13T07:38:43;98300.09;;;21.47;74.91
79481;BME280;68944;48.262;14.208;2023-07-13T07:41:09;98311.97;;;21.65;74.82
79481;BME280;68944;48.262;14.208;2023-07-13T07:43:35;98316.75;;;21.68;74.31
79481;BME280;68944;48.262;14.208;2023-07-13T07:46:02;98313.09;;;21.78;73.81
79481;BME280;68944;48.262;14.208;2023-07-13T07:48:27;98299.28;;;21.85;73.61
79481;BME280;68944;48.262;14.208;2023-07-13T07:50:53;98317.00;;;22.05;73.27
79481;BME280;68944;48.262;14.208;2023-07-13T07:53:18;98316.81;;;21.82;72.25
79481;BME280;68944;48.262;14.208;2023-07-13T07:55:44;98322.09;;;21.93;72.25
79481;BME280;68944;48.262;14.208;2023-07-13T07:58:10;98317.63;;;22.02;72.15
79481;BME280;68944;48.262;14.208;2023-07-13T08:00:36;98325.91;;;22.06;71.32
79481;BME280;68944;48.262;14.208;2023-07-13T08:03:01;98319.63;;;22.11;71.80
79481;BME280;68944;48.262;14.208;2023-07-13T08:05:27;98329.94;;;22.23;71.02
79481;BME280;68944;48.262;14.208;2023-07-13T08:07:53;98326.81;;;22.15;72.27
79481;BME280;68944;48.262;14.208;2023-07-13T08:10:19;98317.00;;;22.05;71.51
79481;BME280;68944;48.262;14.208;2023-07-13T08:12:45;98335.31;;;22.09;70.92
79481;BME280;68944;48.262;14.208;2023-07-13T08:15:12;98335.72;;;22.16;71.46
79481;BME280;68944;48.262;14.208;2023-07-13T08:17:38;98338.81;;;22.09;71.33
79481;BME280;68944;48.262;14.208;2023-07-13T08:20:04;98344.34;;;21.99;71.04
79481;BME280;68944;48.262;14.208;2023-07-13T08:22:30;98339.47;;;22.01;70.47
79481;BME280;68944;48.262;14.208;2023-07-13T08:24:55;98337.31;;;22.17;70.94
79481;BME280;68944;48.262;14.208;2023-07-13T08:27:25;98350.72;;;22.22;71.12
79481;BME280;68944;48.262;14.208;2023-07-13T08:29:52;98353.56;;;21.98;70.60
79481;BME280;68944;48.262;14.208;2023-07-13T08:32:19;98360.63;;;21.93;70.80
79481;BME280;68944;48.262;14.208;2023-07-13T08:34:45;98370.31;;;21.94;71.60
79481;BME280;68944;48.262;14.208;2023-07-13T08:37:11;98369.88;;;21.87;71.76
79481;BME280;68944;48.262;14.208;2023-07-13T08:39:36;98378.41;;;21.94;70.83
79481;BME280;68944;48.262;14.208;2023-07-13T08:47:28;98385.97;;;21.73;70.65
79481;BME280;68944;48.262;14.208;2023-07-13T08:49:56;98376.66;;;21.65;70.80
79481;BME280;68944;48.262;14.208;2023-07-13T08:52:35;98381.97;;;21.70;70.95
79481;BME280;68944;48.262;14.208;2023-07-13T08:55:12;98372.81;;;21.91;70.41
79481;BME280;68944;48.262;14.208;2023-07-13T08:57:41;98371.13;;;21.95;69.85
79481;BME280;68944;48.262;14.208;2023-07-13T09:00:12;98396.53;;;22.08;70.38
79481;BME280;68944;48.262;14.208;2023-07-13T09:05:24;98397.97;;;22.20;69.29
79481;BME280;68944;48.262;14.208;2023-07-13T09:10:28;98380.22;;;22.47;68.54
79481;BME280;68944;48.262;14.208;2023-07-13T09:15:28;98390.78;;;22.62;67.67
79481;BME280;68944;48.262;14.208;2023-07-13T09:18:03;98390.25;;;22.46;66.46
79481;BME280;68944;48.262;14.208;2023-07-13T09:20:46;98387.25;;;22.48;66.36
79481;BME280;68944;48.262;14.208;2023-07-13T09:23:20;98402.84;;;22.51;66.21
79481;BME280;68944;48.262;14.208;2023-07-13T09:25:54;98404.44;;;22.52;65.87
79481;BME280;68944;48.262;14.208;2023-07-13T09:28:26;98409.84;;;22.52;66.52
79481;BME280;68944;48.262;14.208;2023-07-13T09:31:07;98403.94;;;22.50;65.56
79481;BME280;68944;48.262;14.208;2023-07-13T09:33:35;98398.13;;;22.43;65.61
79481;BME280;68944;48.262;14.208;2023-07-13T09:36:01;98403.25;;;22.58;66.17
79481;BME280;68944;48.262;14.208;2023-07-13T09:38:29;98405.16;;;22.58;65.54
79481;BME280;68944;48.262;14.208;2023-07-13T09:43:39;98407.69;;;22.68;64.43
79481;BME280;68944;48.262;14.208;2023-07-13T09:46:07;98418.09;;;22.75;64.96
79481;BME280;68944;48.262;14.208;2023-07-13T09:48:45;98424.97;;;22.67;63.91
79481;BME280;68944;48.262;14.208;2023-07-13T09:51:14;98425.56;;;22.64;64.64
79481;BME280;68944;48.262;14.208;2023-07-13T09:53:41;98418.91;;;22.76;64.07
79481;BME280;68944;48.262;14.208;2023-07-13T09:56:19;98412.66;;;22.61;64.06
79481;BME280;68944;48.262;14.208;2023-07-13T09:58:45;98414.47;;;22.66;64.27
79481;BME280;68944;48.262;14.208;2023-07-13T10:01:10;98421.22;;;22.82;64.88
79481;BME280;68944;48.262;14.208;2023-07-13T10:03:36;98396.41;;;22.80;64.78
79481;BME280;68944;48.262;14.208;2023-07-13T10:06:16;98418.81;;;22.95;64.09
79481;BME280;68944;48.262;14.208;2023-07-13T10:08:44;98409.81;;;22.86;64.16
79481;BME280;68944;48.262;14.208;2023-07-13T10:11:14;98420.63;;;23.00;63.31
79481;BME280;68944;48.262;14.208;2023-07-13T10:13:53;98411.50;;;23.10;63.36
79481;BME280;68944;48.262;14.208;2023-07-13T10:16:21;98413.22;;;23.05;62.35
79481;BME280;68944;48.262;14.208;2023-07-13T10:18:59;98421.59;;;23.32;62.68
79481;BME280;68944;48.262;14.208;2023-07-13T10:21:33;98418.06;;;23.46;62.36
79481;BME280;68944;48.262;14.208;2023-07-13T10:24:13;98425.91;;;23.47;60.82
79481;BME280;68944;48.262;14.208;2023-07-13T10:26:46;98426.22;;;23.17;60.79
79481;BME280;68944;48.262;14.208;2023-07-13T10:29:14;98403.38;;;23.24;61.46
79481;BME280;68944;48.262;14.208;2023-07-13T10:31:41;98412.38;;;23.47;61.73
79481;BME280;68944;48.262;14.208;2023-07-13T10:34:11;98416.47;;;23.45;60.06
79481;BME280;68944;48.262;14.208;2023-07-13T10:39:05;98400.75;;;23.61;59.98
79481;BME280;68944;48.262;14.208;2023-07-13T10:41:34;98408.69;;;23.80;60.08
79481;BME280;68944;48.262;14.208;2023-07-13T10:44:01;98413.50;;;23.83;59.09
79481;BME280;68944;48.262;14.208;2023-07-13T10:46:28;98408.75;;;23.66;58.92
79481;BME280;68944;48.262;14.208;2023-07-13T10:49:01;98414.78;;;23.86;59.54
79481;BME280;68944;48.262;14.208;2023-07-13T10:51:30;98412.69;;;23.83;59.87
79481;BME280;68944;48.262;14.208;2023-07-13T10:56:43;98412.88;;;23.86;58.00
79481;BME280;68944;48.262;14.208;2023-07-13T11:02:00;98426.06;;;23.65;56.99
79481;BME280;68944;48.262;14.208;2023-07-13T11:04:43;98419.72;;;23.70;57.49
79481;BME280;68944;48.262;14.208;2023-07-13T11:07:19;98425.63;;;23.72;56.77
79481;BME280;68944;48.262;14.208;2023-07-13T11:09:49;98424.38;;;23.69;57.48
79481;BME280;68944;48.262;14.208;2023-07-13T11:15:05;98438.19;;;23.53;56.30
79481;BME280;68944;48.262;14.208;2023-07-13T11:17:35;98419.56;;;23.66;55.86
79481;BME280;68944;48.262;14.208;2023-07-13T11:27:49;98390.91;;;23.65;61.35
79481;BME280;68944;48.262;14.208;2023-07-13T11:30:35;98396.66;;;23.49;61.69
79481;BME280;68944;48.262;14.208;2023-07-13T11:38:37;98401.66;;;23.42;61.19
79481;BME280;68944;48.262;14.208;2023-07-13T11:41:26;98401.38;;;23.58;61.10
79481;BME280;68944;48.262;14.208;2023-07-13T11:43:53;98404.16;;;23.52;60.79
79481;BME280;68944;48.262;14.208;2023-07-13T11:46:26;98398.75;;;23.52;61.11
79481;BME280;68944;48.262;14.208;2023-07-13T11:48:52;98404.00;;;23.72;60.39
79481;BME280;68944;48.262;14.208;2023-07-13T11:51:26;98417.28;;;23.45;60.91
79481;BME280;68944;48.262;14.208;2023-07-13T11:53:54;98415.91;;;23.48;60.57
79481;BME280;68944;48.262;14.208;2023-07-13T11:56:20;98404.53;;;23.74;60.42
79481;BME280;68944;48.262;14.208;2023-07-13T11:58:54;98398.13;;;23.56;59.18
79481;BME280;68944;48.262;14.208;2023-07-13T12:01:22;98405.59;;;23.73;59.75
79481;BME280;68944;48.262;14.208;2023-07-13T12:03:49;98415.41;;;23.83;59.51
79481;BME280;68944;48.262;14.208;2023-07-13T12:06:41;98406.44;;;23.96;59.26
79481;BME280;68944;48.262;14.208;2023-07-13T12:09:12;98384.09;;;24.14;58.56
79481;BME280;68944;48.262;14.208;2023-07-13T12:11:40;98395.28;;;23.98;58.95
79481;BME280;68944;48.262;14.208;2023-07-13T12:14:13;98395.22;;;23.89;58.72
79481;BME280;68944;48.262;14.208;2023-07-13T12:16:40;98390.56;;;23.58;58.32
79481;BME280;68944;48.262;14.208;2023-07-13T12:19:17;98371.25;;;23.96;58.17
79481;BME280;68944;48.262;14.208;2023-07-13T12:21:44;98369.63;;;24.18;58.22
79481;BME280;68944;48.262;14.208;2023-07-13T12:24:18;98378.34;;;24.70;57.54
79481;BME280;68944;48.262;14.208;2023-07-13T12:26:44;98382.16;;;25.01;56.34
79481;BME280;68944;48.262;14.208;2023-07-13T12:29:16;98379.75;;;24.99;55.31
79481;BME280;68944;48.262;14.208;2023-07-13T12:31:44;98378.03;;;25.13;55.76
79481;BME280;68944;48.262;14.208;2023-07-13T12:34:16;98378.50;;;25.15;54.95
79481;BME280;68944;48.262;14.208;2023-07-13T12:36:58;98360.69;;;25.49;54.36
79481;BME280;68944;48.262;14.208;2023-07-13T12:39:43;98364.66;;;25.61;53.85
79481;BME280;68944;48.262;14.208;2023-07-13T12:42:22;98371.69;;;25.88;53.47
79481;BME280;68944;48.262;14.208;2023-07-13T12:45:16;98366.44;;;25.56;53.70
79481;BME280;68944;48.262;14.208;2023-07-13T12:47:44;98363.88;;;25.42;53.09
79481;BME280;68944;48.262;14.208;2023-07-13T12:50:23;98348.06;;;25.53;48.71
79481;BME280;68944;48.262;14.208;2023-07-13T12:52:54;98351.78;;;25.75;48.26
79481;BME280;68944;48.262;14.208;2023-07-13T12:55:22;98349.81;;;25.67;48.49
79481;BME280;68944;48.262;14.208;2023-07-13T12:57:54;98355.91;;;25.82;48.69
79481;BME280;68944;48.262;14.208;2023-07-13T13:02:54;98349.88;;;26.42;46.85
79481;BME280;68944;48.262;14.208;2023-07-13T13:05:21;98342.28;;;26.65;46.92
79481;BME280;68944;48.262;14.208;2023-07-13T13:07:49;98352.00;;;26.66;46.97
79481;BME280;68944;48.262;14.208;2023-07-13T13:10:15;98347.72;;;26.96;46.26
79481;BME280;68944;48.262;14.208;2023-07-13T13:12:41;98345.63;;;27.23;47.11
79481;BME280;68944;48.262;14.208;2023-07-13T13:15:12;98343.66;;;27.54;45.74
79481;BME280;68944;48.262;14.208;2023-07-13T13:17:38;98350.75;;;27.24;44.41
79481;BME280;68944;48.262;14.208;2023-07-13T13:20:22;98342.56;;;26.73;45.64
79481;BME280;68944;48.262;14.208;2023-07-13T13:22:48;98356.00;;;26.99;45.53
79481;BME280;68944;48.262;14.208;2023-07-13T13:25:15;98352.47;;;26.99;44.63
79481;BME280;68944;48.262;14.208;2023-07-13T13:27:41;98350.25;;;27.01;45.08
79481;BME280;68944;48.262;14.208;2023-07-13T13:30:17;98344.72;;;26.88;44.84
79481;BME280;68944;48.262;14.208;2023-07-13T13:32:45;98353.22;;;26.39;45.04
79481;BME280;68944;48.262;14.208;2023-07-13T13:35:16;98344.91;;;25.87;46.70
79481;BME280;68944;48.262;14.208;2023-07-13T13:37:43;98343.28;;;25.86;46.92
79481;BME280;68944;48.262;14.208;2023-07-13T13:40:18;98341.72;;;25.85;47.20
79481;BME280;68944;48.262;14.208;2023-07-13T13:42:44;98347.13;;;25.85;47.27